sensor_id;sensor_type;location;lat;lon;timestamp;temperature;humidity
3638;DHT22;1835;50.068;8.154;2023-03-02T00:01:50;3.10;95.70
3638;DHT22;1835;50.068;8.154;2023-03-02T00:04:23;3.00;96.80
3638;DHT22;1835;50.068;8.154;2023-03-02T00:06:58;3.10;96.90
3638;DHT22;1835;50.068;8.154;2023-03-02T00:09:28;3.20;97.30
3638;DHT22;1835;50.068;8.154;2023-03-02T00:11:57;3.10;97.30
3638;DHT22;1835;50.068;8.154;2023-03-02T00:14:25;3.10;97.40
3638;DHT22;1835;50.068;8.154;2023-03-02T00:16:54;2.80;96.70
3638;DHT22;1835;50.068;8.154;2023-03-02T00:19:23;2.90;97.60
3638;DHT22;1835;50.068;8.154;2023-03-02T00:21:51;2.80;98.20
3638;DHT22;1835;50.068;8.154;2023-03-02T00:24:19;2.90;98.40
3638;DHT22;1835;50.068;8.154;2023-03-02T00:26:47;2.90;98.30
3638;DHT22;1835;50.068;8.154;2023-03-02T00:29:15;2.80;97.90
3638;DHT22;1835;50.068;8.154;2023-03-02T00:31:43;2.90;98.20
3638;DHT22;1835;50.068;8.154;2023-03-02T00:34:13;3.00;97.30
3638;DHT22;1835;50.068;8.154;2023-03-02T00:36:42;3.10;97.70
3638;DHT22;1835;50.068;8.154;2023-03-02T00:39:10;3.10;97.20
3638;DHT22;1835;50.068;8.154;2023-03-02T00:41:38;3.20;97.00
3638;DHT22;1835;50.068;8.154;2023-03-02T00:44:06;3.30;97.00
3638;DHT22;1835;50.068;8.154;2023-03-02T00:46:34;3.20;97.40
3638;DHT22;1835;50.068;8.154;2023-03-02T00:49:02;3.30;97.60
3638;DHT22;1835;50.068;8.154;2023-03-02T00:51:32;3.20;97.50
3638;DHT22;1835;50.068;8.154;2023-03-02T00:54:01;3.20;97.30
3638;DHT22;1835;50.068;8.154;2023-03-02T00:56:30;3.50;96.70
3638;DHT22;1835;50.068;8.154;2023-03-02T00:59:03;3.40;96.60
3638;DHT22;1835;50.068;8.154;2023-03-02T01:01:32;3.30;95.90
3638;DHT22;1835;50.068;8.154;2023-03-02T01:04:00;3.50;96.40
3638;DHT22;1835;50.068;8.154;2023-03-02T01:06:28;3.30;96.30
3638;DHT22;1835;50.068;8.154;2023-03-02T01:08:58;3.50;96.50
3638;DHT22;1835;50.068;8.154;2023-03-02T01:11:26;3.50;97.00
3638;DHT22;1835;50.068;8.154;2023-03-02T01:13:54;3.40;97.40
3638;DHT22;1835;50.068;8.154;2023-03-02T01:16:23;3.30;96.60
3638;DHT22;1835;50.068;8.154;2023-03-02T01:18:51;3.40;96.40
3638;DHT22;1835;50.068;8.154;2023-03-02T01:21:19;3.50;96.70
3638;DHT22;1835;50.068;8.154;2023-03-02T01:23:48;3.50;96.40
3638;DHT22;1835;50.068;8.154;2023-03-02T01:26:18;3.60;96.40
3638;DHT22;1835;50.068;8.154;2023-03-02T01:28:46;3.60;96.80
3638;DHT22;1835;50.068;8.154;2023-03-02T01:31:16;3.70;96.00
3638;DHT22;1835;50.068;8.154;2023-03-02T01:33:44;3.70;96.60
3638;DHT22;1835;50.068;8.154;2023-03-02T01:36:12;3.40;96.60
3638;DHT22;1835;50.068;8.154;2023-03-02T01:38:40;3.40;96.60
3638;DHT22;1835;50.068;8.154;2023-03-02T01:41:09;3.50;96.80
3638;DHT22;1835;50.068;8.154;2023-03-02T01:43:38;3.60;97.20
3638;DHT22;1835;50.068;8.154;2023-03-02T01:46:09;3.80;96.00
3638;DHT22;1835;50.068;8.154;2023-03-02T01:48:43;3.80;96.40
3638;DHT22;1835;50.068;8.154;2023-03-02T01:51:15;3.60;96.40
3638;DHT22;1835;50.068;8.154;2023-03-02T01:53:45;3.60;96.60
3638;DHT22;1835;50.068;8.154;2023-03-02T01:56:16;3.60;96.60
3638;DHT22;1835;50.068;8.154;2023-03-02T01:58:50;3.60;96.00
3638;DHT22;1835;50.068;8.154;2023-03-02T02:01:21;3.70;96.50
3638;DHT22;1835;50.068;8.154;2023-03-02T02:03:50;3.70;96.60
3638;DHT22;1835;50.068;8.154;2023-03-02T02:06:22;3.80;97.20
3638;DHT22;1835;50.068;8.154;2023-03-02T02:08:53;3.70;96.00
3638;DHT22;1835;50.068;8.154;2023-03-02T02:11:24;3.60;96.50
3638;DHT22;1835;50.068;8.154;2023-03-02T02:13:56;3.60;96.70
3638;DHT22;1835;50.068;8.154;2023-03-02T02:16:26;3.70;97.10
3638;DHT22;1835;50.068;8.154;2023-03-02T02:18:56;3.70;97.30
3638;DHT22;1835;50.068;8.154;2023-03-02T02:21:24;3.50;97.40
3638;DHT22;1835;50.068;8.154;2023-03-02T02:24:01;3.50;97.90
3638;DHT22;1835;50.068;8.154;2023-03-02T02:26:36;3.40;98.10
3638;DHT22;1835;50.068;8.154;2023-03-02T02:29:11;3.50;98.50
3638;DHT22;1835;50.068;8.154;2023-03-02T02:31:44;3.30;98.40
3638;DHT22;1835;50.068;8.154;2023-03-02T02:34:18;3.30;99.20
3638;DHT22;1835;50.068;8.154;2023-03-02T02:36:51;3.00;99.30
3638;DHT22;1835;50.068;8.154;2023-03-02T02:39:26;2.80;99.80
3638;DHT22;1835;50.068;8.154;2023-03-02T02:42:00;2.70;99.90
3638;DHT22;1835;50.068;8.154;2023-03-02T02:44:30;2.70;99.90
3638;DHT22;1835;50.068;8.154;2023-03-02T02:46:58;2.60;99.90
3638;DHT22;1835;50.068;8.154;2023-03-02T02:49:30;2.60;99.90
3638;DHT22;1835;50.068;8.154;2023-03-02T02:51:59;2.60;99.90
3638;DHT22;1835;50.068;8.154;2023-03-02T02:54:29;2.70;99.90
3638;DHT22;1835;50.068;8.154;2023-03-02T02:57:01;2.60;99.90
3638;DHT22;1835;50.068;8.154;2023-03-02T02:59:32;2.50;99.90
3638;DHT22;1835;50.068;8.154;2023-03-02T03:02:02;2.50;99.90
3638;DHT22;1835;50.068;8.154;2023-03-02T03:04:31;2.60;99.90
3638;DHT22;1835;50.068;8.154;2023-03-02T03:07:01;2.60;99.90
3638;DHT22;1835;50.068;8.154;2023-03-02T03:09:31;2.50;99.90
3638;DHT22;1835;50.068;8.154;2023-03-02T03:12:03;2.50;99.90
3638;DHT22;1835;50.068;8.154;2023-03-02T03:14:39;2.60;99.90
3638;DHT22;1835;50.068;8.154;2023-03-02T03:17:07;2.50;99.90
3638;DHT22;1835;50.068;8.154;2023-03-02T03:19:40;2.40;99.90
3638;DHT22;1835;50.068;8.154;2023-03-02T03:22:10;2.30;99.90
3638;DHT22;1835;50.068;8.154;2023-03-02T03:24:40;2.30;99.90
3638;DHT22;1835;50.068;8.154;2023-03-02T03:27:13;2.40;99.90
3638;DHT22;1835;50.068;8.154;2023-03-02T03:29:43;2.40;99.90
3638;DHT22;1835;50.068;8.154;2023-03-02T03:32:13;2.50;99.90
3638;DHT22;1835;50.068;8.154;2023-03-02T03:34:42;2.50;99.90
3638;DHT22;1835;50.068;8.154;2023-03-02T03:37:12;2.50;99.90
3638;DHT22;1835;50.068;8.154;2023-03-02T03:39:42;2.50;99.90
3638;DHT22;1835;50.068;8.154;2023-03-02T03:42:12;2.40;99.90
3638;DHT22;1835;50.068;8.154;2023-03-02T03:44:40;2.50;99.90
3638;DHT22;1835;50.068;8.154;2023-03-02T03:47:08;2.60;99.90
3638;DHT22;1835;50.068;8.154;2023-03-02T03:49:36;2.50;99.90
3638;DHT22;1835;50.068;8.154;2023-03-02T03:52:04;2.40;99.90
3638;DHT22;1835;50.068;8.154;2023-03-02T03:54:32;2.40;99.90
3638;DHT22;1835;50.068;8.154;2023-03-02T03:57:00;2.50;99.90
3638;DHT22;1835;50.068;8.154;2023-03-02T03:59:30;2.40;99.90
3638;DHT22;1835;50.068;8.154;2023-03-02T04:02:00;2.40;99.90
3638;DHT22;1835;50.068;8.154;2023-03-02T04:04:30;2.30;99.90
3638;DHT22;1835;50.068;8.154;2023-03-02T04:07:01;2.30;99.90
3638;DHT22;1835;50.068;8.154;2023-03-02T04:09:29;2.20;99.90
3638;DHT22;1835;50.068;8.154;2023-03-02T04:11:59;2.30;99.90
3638;DHT22;1835;50.068;8.154;2023-03-02T04:14:27;2.20;99.90
3638;DHT22;1835;50.068;8.154;2023-03-02T04:16:56;2.20;99.90
3638;DHT22;1835;50.068;8.154;2023-03-02T04:19:25;2.10;99.90
3638;DHT22;1835;50.068;8.154;2023-03-02T04:21:53;2.10;99.90
3638;DHT22;1835;50.068;8.154;2023-03-02T04:24:22;2.10;99.90
3638;DHT22;1835;50.068;8.154;2023-03-02T04:26:51;2.20;99.90
3638;DHT22;1835;50.068;8.154;2023-03-02T04:29:19;2.10;99.90
3638;DHT22;1835;50.068;8.154;2023-03-02T04:31:47;1.90;99.90
3638;DHT22;1835;50.068;8.154;2023-03-02T04:34:16;1.90;99.90
3638;DHT22;1835;50.068;8.154;2023-03-02T04:36:45;1.80;99.90
3638;DHT22;1835;50.068;8.154;2023-03-02T04:39:14;1.90;99.90
3638;DHT22;1835;50.068;8.154;2023-03-02T04:41:43;1.90;99.90
3638;DHT22;1835;50.068;8.154;2023-03-02T04:44:11;1.90;99.90
3638;DHT22;1835;50.068;8.154;2023-03-02T04:46:41;1.80;99.90
3638;DHT22;1835;50.068;8.154;2023-03-02T04:49:11;1.70;99.90
3638;DHT22;1835;50.068;8.154;2023-03-02T04:51:42;1.70;99.90
3638;DHT22;1835;50.068;8.154;2023-03-02T04:54:14;1.70;99.90
3638;DHT22;1835;50.068;8.154;2023-03-02T04:56:43;1.80;99.90
3638;DHT22;1835;50.068;8.154;2023-03-02T04:59:14;1.70;99.90
3638;DHT22;1835;50.068;8.154;2023-03-02T05:01:42;1.70;99.90
3638;DHT22;1835;50.068;8.154;2023-03-02T05:04:11;1.80;99.90
3638;DHT22;1835;50.068;8.154;2023-03-02T05:06:40;1.80;99.90
3638;DHT22;1835;50.068;8.154;2023-03-02T05:09:09;1.90;99.90
3638;DHT22;1835;50.068;8.154;2023-03-02T05:11:37;1.80;99.90
3638;DHT22;1835;50.068;8.154;2023-03-02T05:14:08;1.90;99.90
3638;DHT22;1835;50.068;8.154;2023-03-02T05:16:39;1.80;99.90
3638;DHT22;1835;50.068;8.154;2023-03-02T05:19:09;1.80;99.90
3638;DHT22;1835;50.068;8.154;2023-03-02T05:21:38;1.80;99.90
3638;DHT22;1835;50.068;8.154;2023-03-02T05:24:08;1.80;99.90
3638;DHT22;1835;50.068;8.154;2023-03-02T05:26:37;1.80;99.90
3638;DHT22;1835;50.068;8.154;2023-03-02T05:29:05;1.80;99.90
3638;DHT22;1835;50.068;8.154;2023-03-02T05:31:36;1.70;99.90
3638;DHT22;1835;50.068;8.154;2023-03-02T05:34:09;1.70;99.90
3638;DHT22;1835;50.068;8.154;2023-03-02T05:36:38;1.70;99.90
3638;DHT22;1835;50.068;8.154;2023-03-02T05:39:08;1.70;99.90
3638;DHT22;1835;50.068;8.154;2023-03-02T05:41:36;1.60;99.90
3638;DHT22;1835;50.068;8.154;2023-03-02T05:44:05;1.70;99.90
3638;DHT22;1835;50.068;8.154;2023-03-02T05:46:37;1.60;99.90
3638;DHT22;1835;50.068;8.154;2023-03-02T05:49:06;1.60;99.90
3638;DHT22;1835;50.068;8.154;2023-03-02T05:51:34;1.60;99.90
3638;DHT22;1835;50.068;8.154;2023-03-02T05:54:04;1.70;99.90
3638;DHT22;1835;50.068;8.154;2023-03-02T05:56:32;1.60;99.90
3638;DHT22;1835;50.068;8.154;2023-03-02T05:59:00;1.60;99.90
3638;DHT22;1835;50.068;8.154;2023-03-02T06:01:28;1.50;99.90
3638;DHT22;1835;50.068;8.154;2023-03-02T06:03:57;1.50;99.90
3638;DHT22;1835;50.068;8.154;2023-03-02T06:06:25;1.60;99.90
3638;DHT22;1835;50.068;8.154;2023-03-02T06:08:53;1.60;99.90
3638;DHT22;1835;50.068;8.154;2023-03-02T06:11:23;1.70;99.90
3638;DHT22;1835;50.068;8.154;2023-03-02T06:13:51;1.60;99.90
3638;DHT22;1835;50.068;8.154;2023-03-02T06:16:20;1.70;99.90
3638;DHT22;1835;50.068;8.154;2023-03-02T06:18:48;1.70;99.90
3638;DHT22;1835;50.068;8.154;2023-03-02T06:21:16;1.80;99.90
3638;DHT22;1835;50.068;8.154;2023-03-02T06:23:45;1.90;99.90
3638;DHT22;1835;50.068;8.154;2023-03-02T06:26:13;2.00;99.90
3638;DHT22;1835;50.068;8.154;2023-03-02T06:28:43;2.00;99.90
3638;DHT22;1835;50.068;8.154;2023-03-02T06:31:19;1.90;99.90
3638;DHT22;1835;50.068;8.154;2023-03-02T06:33:48;1.50;99.90
3638;DHT22;1835;50.068;8.154;2023-03-02T06:36:17;1.00;99.90
3638;DHT22;1835;50.068;8.154;2023-03-02T06:38:45;1.10;99.90
3638;DHT22;1835;50.068;8.154;2023-03-02T06:41:13;1.40;99.90
3638;DHT22;1835;50.068;8.154;2023-03-02T06:43:43;1.40;99.90
3638;DHT22;1835;50.068;8.154;2023-03-02T06:46:11;1.50;99.90
3638;DHT22;1835;50.068;8.154;2023-03-02T06:48:39;1.70;99.90
3638;DHT22;1835;50.068;8.154;2023-03-02T06:51:07;1.70;99.90
3638;DHT22;1835;50.068;8.154;2023-03-02T06:53:35;1.80;99.90
3638;DHT22;1835;50.068;8.154;2023-03-02T06:56:04;1.80;99.90
3638;DHT22;1835;50.068;8.154;2023-03-02T06:58:33;2.00;99.90
3638;DHT22;1835;50.068;8.154;2023-03-02T07:01:03;2.10;99.90
3638;DHT22;1835;50.068;8.154;2023-03-02T07:03:33;2.30;99.90
3638;DHT22;1835;50.068;8.154;2023-03-02T07:06:02;2.40;99.90
3638;DHT22;1835;50.068;8.154;2023-03-02T07:08:31;2.50;99.90
3638;DHT22;1835;50.068;8.154;2023-03-02T07:11:03;2.70;99.90
3638;DHT22;1835;50.068;8.154;2023-03-02T07:13:32;2.80;99.90
3638;DHT22;1835;50.068;8.154;2023-03-02T07:16:06;3.00;99.90
3638;DHT22;1835;50.068;8.154;2023-03-02T07:18:35;3.10;99.90
3638;DHT22;1835;50.068;8.154;2023-03-02T07:21:04;3.30;99.90
3638;DHT22;1835;50.068;8.154;2023-03-02T07:23:32;3.40;99.90
3638;DHT22;1835;50.068;8.154;2023-03-02T07:26:01;3.50;99.90
3638;DHT22;1835;50.068;8.154;2023-03-02T07:28:34;3.80;99.90
3638;DHT22;1835;50.068;8.154;2023-03-02T07:31:06;4.20;99.90
3638;DHT22;1835;50.068;8.154;2023-03-02T07:33:37;4.90;99.90
3638;DHT22;1835;50.068;8.154;2023-03-02T07:36:07;5.90;99.90
3638;DHT22;1835;50.068;8.154;2023-03-02T07:38:35;6.70;98.90
3638;DHT22;1835;50.068;8.154;2023-03-02T07:41:08;7.40;97.50
3638;DHT22;1835;50.068;8.154;2023-03-02T07:43:38;8.00;96.10
3638;DHT22;1835;50.068;8.154;2023-03-02T07:46:08;8.60;94.90
3638;DHT22;1835;50.068;8.154;2023-03-02T07:48:36;9.30;93.50
3638;DHT22;1835;50.068;8.154;2023-03-02T07:51:06;9.30;91.70
3638;DHT22;1835;50.068;8.154;2023-03-02T07:53:35;9.80;90.70
3638;DHT22;1835;50.068;8.154;2023-03-02T07:56:08;10.40;88.10
3638;DHT22;1835;50.068;8.154;2023-03-02T07:58:37;10.80;83.70
3638;DHT22;1835;50.068;8.154;2023-03-02T08:01:05;11.00;83.40
3638;DHT22;1835;50.068;8.154;2023-03-02T08:03:36;11.20;82.00
3638;DHT22;1835;50.068;8.154;2023-03-02T08:06:05;11.40;78.70
3638;DHT22;1835;50.068;8.154;2023-03-02T08:08:35;11.90;77.70
3638;DHT22;1835;50.068;8.154;2023-03-02T08:11:05;12.00;75.30
3638;DHT22;1835;50.068;8.154;2023-03-02T08:13:35;11.90;73.50
3638;DHT22;1835;50.068;8.154;2023-03-02T08:16:05;12.30;73.70
3638;DHT22;1835;50.068;8.154;2023-03-02T08:18:37;12.50;70.10
3638;DHT22;1835;50.068;8.154;2023-03-02T08:21:11;12.40;70.70
3638;DHT22;1835;50.068;8.154;2023-03-02T08:23:40;12.70;68.60
3638;DHT22;1835;50.068;8.154;2023-03-02T08:26:08;13.00;69.00
3638;DHT22;1835;50.068;8.154;2023-03-02T08:28:40;13.40;66.90
3638;DHT22;1835;50.068;8.154;2023-03-02T08:31:08;13.40;66.20
3638;DHT22;1835;50.068;8.154;2023-03-02T08:33:38;13.60;63.90
3638;DHT22;1835;50.068;8.154;2023-03-02T08:36:09;13.70;65.10
3638;DHT22;1835;50.068;8.154;2023-03-02T08:38:39;13.90;62.70
3638;DHT22;1835;50.068;8.154;2023-03-02T08:41:11;14.50;62.30
3638;DHT22;1835;50.068;8.154;2023-03-02T08:43:40;14.50;63.30
3638;DHT22;1835;50.068;8.154;2023-03-02T08:46:10;14.50;60.40
3638;DHT22;1835;50.068;8.154;2023-03-02T08:48:41;15.30;58.80
3638;DHT22;1835;50.068;8.154;2023-03-02T08:51:11;15.10;58.30
3638;DHT22;1835;50.068;8.154;2023-03-02T08:53:42;15.10;56.50
3638;DHT22;1835;50.068;8.154;2023-03-02T08:56:16;15.10;58.10
3638;DHT22;1835;50.068;8.154;2023-03-02T08:58:46;15.70;57.00
3638;DHT22;1835;50.068;8.154;2023-03-02T09:01:16;15.90;55.60
3638;DHT22;1835;50.068;8.154;2023-03-02T09:03:46;15.90;54.70
3638;DHT22;1835;50.068;8.154;2023-03-02T09:06:14;15.80;55.70
3638;DHT22;1835;50.068;8.154;2023-03-02T09:08:43;15.10;54.40
3638;DHT22;1835;50.068;8.154;2023-03-02T09:11:12;14.50;55.20
3638;DHT22;1835;50.068;8.154;2023-03-02T09:13:41;15.00;56.40
3638;DHT22;1835;50.068;8.154;2023-03-02T09:16:09;15.10;57.20
3638;DHT22;1835;50.068;8.154;2023-03-02T09:18:38;15.50;54.40
3638;DHT22;1835;50.068;8.154;2023-03-02T09:21:09;15.60;55.40
3638;DHT22;1835;50.068;8.154;2023-03-02T09:23:37;15.10;54.30
3638;DHT22;1835;50.068;8.154;2023-03-02T09:26:05;14.90;56.10
3638;DHT22;1835;50.068;8.154;2023-03-02T09:28:35;15.30;56.50
3638;DHT22;1835;50.068;8.154;2023-03-02T09:31:07;15.50;54.50
3638;DHT22;1835;50.068;8.154;2023-03-02T09:33:35;15.60;55.70
3638;DHT22;1835;50.068;8.154;2023-03-02T09:36:18;15.30;52.90
3638;DHT22;1835;50.068;8.154;2023-03-02T09:38:47;15.90;53.70
3638;DHT22;1835;50.068;8.154;2023-03-02T09:44:56;16.50;52.30
3638;DHT22;1835;50.068;8.154;2023-03-02T09:47:35;16.40;51.10
3638;DHT22;1835;50.068;8.154;2023-03-02T09:50:22;16.00;51.00
3638;DHT22;1835;50.068;8.154;2023-03-02T09:53:16;15.80;53.00
3638;DHT22;1835;50.068;8.154;2023-03-02T09:55:54;16.10;52.90
3638;DHT22;1835;50.068;8.154;2023-03-02T09:58:32;16.40;53.60
3638;DHT22;1835;50.068;8.154;2023-03-02T10:01:08;16.80;51.00
3638;DHT22;1835;50.068;8.154;2023-03-02T10:03:47;16.50;50.90
3638;DHT22;1835;50.068;8.154;2023-03-02T10:06:19;16.60;50.50
3638;DHT22;1835;50.068;8.154;2023-03-02T10:08:48;15.90;50.80
3638;DHT22;1835;50.068;8.154;2023-03-02T10:11:24;15.70;52.00
3638;DHT22;1835;50.068;8.154;2023-03-02T10:14:02;15.80;51.80
3638;DHT22;1835;50.068;8.154;2023-03-02T10:16:37;16.60;53.60
3638;DHT22;1835;50.068;8.154;2023-03-02T10:19:14;17.30;51.40
3638;DHT22;1835;50.068;8.154;2023-03-02T10:21:47;17.30;49.90
3638;DHT22;1835;50.068;8.154;2023-03-02T10:24:28;17.00;49.70
3638;DHT22;1835;50.068;8.154;2023-03-02T10:27:01;16.80;50.00
3638;DHT22;1835;50.068;8.154;2023-03-02T10:29:44;16.80;50.50
3638;DHT22;1835;50.068;8.154;2023-03-02T10:32:19;16.60;50.00
3638;DHT22;1835;50.068;8.154;2023-03-02T10:34:50;16.30;49.80
3638;DHT22;1835;50.068;8.154;2023-03-02T10:37:22;17.00;50.20
3638;DHT22;1835;50.068;8.154;2023-03-02T10:39:55;17.40;49.80
3638;DHT22;1835;50.068;8.154;2023-03-02T10:42:27;17.20;49.00
3638;DHT22;1835;50.068;8.154;2023-03-02T10:45:02;16.80;49.40
3638;DHT22;1835;50.068;8.154;2023-03-02T10:47:35;16.70;49.10
3638;DHT22;1835;50.068;8.154;2023-03-02T10:50:04;16.50;49.10
3638;DHT22;1835;50.068;8.154;2023-03-02T10:52:48;16.40;51.00
3638;DHT22;1835;50.068;8.154;2023-03-02T10:55:28;17.70;50.10
3638;DHT22;1835;50.068;8.154;2023-03-02T10:58:00;18.20;48.60
3638;DHT22;1835;50.068;8.154;2023-03-02T11:00:31;18.10;48.10
3638;DHT22;1835;50.068;8.154;2023-03-02T11:03:03;17.40;47.10
3638;DHT22;1835;50.068;8.154;2023-03-02T11:05:44;17.30;49.40
3638;DHT22;1835;50.068;8.154;2023-03-02T11:08:18;18.20;48.50
3638;DHT22;1835;50.068;8.154;2023-03-02T11:10:53;18.80;48.70
3638;DHT22;1835;50.068;8.154;2023-03-02T11:13:29;18.90;47.90
3638;DHT22;1835;50.068;8.154;2023-03-02T11:15:59;17.90;45.20
3638;DHT22;1835;50.068;8.154;2023-03-02T11:18:31;17.80;47.20
3638;DHT22;1835;50.068;8.154;2023-03-02T11:21:03;17.50;48.40
3638;DHT22;1835;50.068;8.154;2023-03-02T11:23:39;17.70;47.80
3638;DHT22;1835;50.068;8.154;2023-03-02T11:26:17;17.90;47.70
3638;DHT22;1835;50.068;8.154;2023-03-02T11:28:55;18.30;47.60
3638;DHT22;1835;50.068;8.154;2023-03-02T11:31:32;18.50;47.10
3638;DHT22;1835;50.068;8.154;2023-03-02T11:34:11;18.60;46.70
3638;DHT22;1835;50.068;8.154;2023-03-02T11:36:59;18.50;47.60
3638;DHT22;1835;50.068;8.154;2023-03-02T11:39:47;18.40;48.30
3638;DHT22;1835;50.068;8.154;2023-03-02T11:42:27;19.00;47.50
3638;DHT22;1835;50.068;8.154;2023-03-02T11:45:01;19.20;46.50
3638;DHT22;1835;50.068;8.154;2023-03-02T11:47:36;19.10;46.20
3638;DHT22;1835;50.068;8.154;2023-03-02T11:50:06;19.40;46.40
3638;DHT22;1835;50.068;8.154;2023-03-02T11:52:40;19.00;45.70
3638;DHT22;1835;50.068;8.154;2023-03-02T11:55:17;18.40;45.50
3638;DHT22;1835;50.068;8.154;2023-03-02T11:57:49;18.10;47.10
3638;DHT22;1835;50.068;8.154;2023-03-02T12:00:29;18.60;47.60
3638;DHT22;1835;50.068;8.154;2023-03-02T12:03:00;17.90;45.90
3638;DHT22;1835;50.068;8.154;2023-03-02T12:05:31;18.30;48.40
3638;DHT22;1835;50.068;8.154;2023-03-02T12:08:03;18.70;46.40
3638;DHT22;1835;50.068;8.154;2023-03-02T12:10:35;19.00;46.00
3638;DHT22;1835;50.068;8.154;2023-03-02T12:13:17;18.80;49.20
3638;DHT22;1835;50.068;8.154;2023-03-02T12:15:47;18.50;47.30
3638;DHT22;1835;50.068;8.154;2023-03-02T12:18:33;17.80;47.60
3638;DHT22;1835;50.068;8.154;2023-03-02T12:21:15;16.90;47.30
3638;DHT22;1835;50.068;8.154;2023-03-02T12:23:58;16.50;49.50
3638;DHT22;1835;50.068;8.154;2023-03-02T12:26:34;15.80;51.20
3638;DHT22;1835;50.068;8.154;2023-03-02T12:29:20;15.20;50.30
3638;DHT22;1835;50.068;8.154;2023-03-02T12:31:52;14.80;52.00
3638;DHT22;1835;50.068;8.154;2023-03-02T12:34:33;14.90;53.00
3638;DHT22;1835;50.068;8.154;2023-03-02T12:37:06;14.60;53.00
3638;DHT22;1835;50.068;8.154;2023-03-02T12:43:13;14.10;54.10
3638;DHT22;1835;50.068;8.154;2023-03-02T12:49:07;14.50;56.50
3638;DHT22;1835;50.068;8.154;2023-03-02T12:51:48;15.10;54.10
3638;DHT22;1835;50.068;8.154;2023-03-02T12:54:20;15.40;52.30
3638;DHT22;1835;50.068;8.154;2023-03-02T12:57:02;15.70;52.10
3638;DHT22;1835;50.068;8.154;2023-03-02T12:59:34;16.10;53.70
3638;DHT22;1835;50.068;8.154;2023-03-02T13:02:14;16.40;51.90
3638;DHT22;1835;50.068;8.154;2023-03-02T13:04:51;16.20;51.30
3638;DHT22;1835;50.068;8.154;2023-03-02T13:07:23;15.80;52.10
3638;DHT22;1835;50.068;8.154;2023-03-02T13:09:54;15.70;52.40
3638;DHT22;1835;50.068;8.154;2023-03-02T13:12:26;15.50;52.30
3638;DHT22;1835;50.068;8.154;2023-03-02T13:14:56;15.00;53.20
3638;DHT22;1835;50.068;8.154;2023-03-02T13:17:28;14.70;52.80
3638;DHT22;1835;50.068;8.154;2023-03-02T13:20:00;14.40;54.30
3638;DHT22;1835;50.068;8.154;2023-03-02T13:22:30;14.30;55.30
3638;DHT22;1835;50.068;8.154;2023-03-02T13:25:00;14.40;55.10
3638;DHT22;1835;50.068;8.154;2023-03-02T13:27:31;14.40;55.30
3638;DHT22;1835;50.068;8.154;2023-03-02T13:30:11;14.10;54.90
3638;DHT22;1835;50.068;8.154;2023-03-02T13:32:58;14.10;55.80
3638;DHT22;1835;50.068;8.154;2023-03-02T13:35:32;14.10;55.60
3638;DHT22;1835;50.068;8.154;2023-03-02T13:38:05;14.00;57.00
3638;DHT22;1835;50.068;8.154;2023-03-02T13:40:42;14.00;55.50
3638;DHT22;1835;50.068;8.154;2023-03-02T13:43:32;13.90;53.80
3638;DHT22;1835;50.068;8.154;2023-03-02T13:46:04;13.80;55.00
3638;DHT22;1835;50.068;8.154;2023-03-02T13:48:34;14.00;56.20
3638;DHT22;1835;50.068;8.154;2023-03-02T13:51:13;13.90;55.40
3638;DHT22;1835;50.068;8.154;2023-03-02T13:53:50;13.90;56.30
3638;DHT22;1835;50.068;8.154;2023-03-02T13:56:29;13.90;56.30
3638;DHT22;1835;50.068;8.154;2023-03-02T13:58:59;13.80;55.80
3638;DHT22;1835;50.068;8.154;2023-03-02T14:01:27;13.70;56.40
3638;DHT22;1835;50.068;8.154;2023-03-02T14:03:57;13.70;55.80
3638;DHT22;1835;50.068;8.154;2023-03-02T14:06:27;13.90;55.80
3638;DHT22;1835;50.068;8.154;2023-03-02T14:08:57;14.00;56.80
3638;DHT22;1835;50.068;8.154;2023-03-02T14:11:26;14.10;55.60
3638;DHT22;1835;50.068;8.154;2023-03-02T14:14:00;14.20;55.70
3638;DHT22;1835;50.068;8.154;2023-03-02T14:16:29;14.00;56.10
3638;DHT22;1835;50.068;8.154;2023-03-02T14:19:01;13.70;55.20
3638;DHT22;1835;50.068;8.154;2023-03-02T14:21:30;13.80;55.60
3638;DHT22;1835;50.068;8.154;2023-03-02T14:23:58;13.90;55.60
3638;DHT22;1835;50.068;8.154;2023-03-02T14:26:30;13.70;55.60
3638;DHT22;1835;50.068;8.154;2023-03-02T14:29:03;13.60;55.00
3638;DHT22;1835;50.068;8.154;2023-03-02T14:31:36;13.60;55.10
3638;DHT22;1835;50.068;8.154;2023-03-02T14:34:09;13.50;55.40
3638;DHT22;1835;50.068;8.154;2023-03-02T14:36:39;13.60;55.30
3638;DHT22;1835;50.068;8.154;2023-03-02T14:39:18;13.70;54.60
3638;DHT22;1835;50.068;8.154;2023-03-02T14:41:48;13.40;53.60
3638;DHT22;1835;50.068;8.154;2023-03-02T14:44:20;13.50;54.00
3638;DHT22;1835;50.068;8.154;2023-03-02T14:46:48;13.60;53.80
3638;DHT22;1835;50.068;8.154;2023-03-02T14:49:18;13.50;53.20
3638;DHT22;1835;50.068;8.154;2023-03-02T14:51:53;13.50;52.90
3638;DHT22;1835;50.068;8.154;2023-03-02T14:54:23;13.30;52.70
3638;DHT22;1835;50.068;8.154;2023-03-02T14:56:53;13.20;52.70
3638;DHT22;1835;50.068;8.154;2023-03-02T14:59:27;13.00;52.10
3638;DHT22;1835;50.068;8.154;2023-03-02T15:02:00;12.90;52.00
3638;DHT22;1835;50.068;8.154;2023-03-02T15:04:46;12.90;51.80
3638;DHT22;1835;50.068;8.154;2023-03-02T15:07:14;12.50;51.80
3638;DHT22;1835;50.068;8.154;2023-03-02T15:09:43;12.30;52.70
3638;DHT22;1835;50.068;8.154;2023-03-02T15:12:11;12.20;52.70
3638;DHT22;1835;50.068;8.154;2023-03-02T15:14:39;12.40;53.00
3638;DHT22;1835;50.068;8.154;2023-03-02T15:17:09;12.50;52.90
3638;DHT22;1835;50.068;8.154;2023-03-02T15:19:37;12.50;53.00
3638;DHT22;1835;50.068;8.154;2023-03-02T15:22:07;12.60;51.70
3638;DHT22;1835;50.068;8.154;2023-03-02T15:24:35;12.50;51.70
3638;DHT22;1835;50.068;8.154;2023-03-02T15:27:03;12.80;51.90
3638;DHT22;1835;50.068;8.154;2023-03-02T15:29:31;12.60;51.10
3638;DHT22;1835;50.068;8.154;2023-03-02T15:31:59;12.60;51.70
3638;DHT22;1835;50.068;8.154;2023-03-02T15:34:27;12.60;51.40
3638;DHT22;1835;50.068;8.154;2023-03-02T15:36:55;12.30;51.20
3638;DHT22;1835;50.068;8.154;2023-03-02T15:39:25;12.10;53.00
3638;DHT22;1835;50.068;8.154;2023-03-02T15:41:53;12.30;52.20
3638;DHT22;1835;50.068;8.154;2023-03-02T15:44:22;12.20;52.00
3638;DHT22;1835;50.068;8.154;2023-03-02T15:46:53;12.10;51.80
3638;DHT22;1835;50.068;8.154;2023-03-02T15:49:22;12.00;51.80
3638;DHT22;1835;50.068;8.154;2023-03-02T15:51:53;12.00;51.70
3638;DHT22;1835;50.068;8.154;2023-03-02T15:54:24;11.90;51.40
3638;DHT22;1835;50.068;8.154;2023-03-02T15:56:53;11.80;51.90
3638;DHT22;1835;50.068;8.154;2023-03-02T15:59:23;11.80;51.90
3638;DHT22;1835;50.068;8.154;2023-03-02T16:01:53;11.70;52.40
3638;DHT22;1835;50.068;8.154;2023-03-02T16:04:25;11.70;52.60
3638;DHT22;1835;50.068;8.154;2023-03-02T16:06:53;11.50;51.80
3638;DHT22;1835;50.068;8.154;2023-03-02T16:09:22;11.50;52.00
3638;DHT22;1835;50.068;8.154;2023-03-02T16:11:52;11.50;52.30
3638;DHT22;1835;50.068;8.154;2023-03-02T16:14:21;11.40;52.10
3638;DHT22;1835;50.068;8.154;2023-03-02T16:16:49;11.20;52.70
3638;DHT22;1835;50.068;8.154;2023-03-02T16:19:18;11.10;52.40
3638;DHT22;1835;50.068;8.154;2023-03-02T16:21:46;10.90;52.60
3638;DHT22;1835;50.068;8.154;2023-03-02T16:24:14;11.00;52.80
3638;DHT22;1835;50.068;8.154;2023-03-02T16:26:43;10.90;53.10
3638;DHT22;1835;50.068;8.154;2023-03-02T16:29:13;10.70;53.00
3638;DHT22;1835;50.068;8.154;2023-03-02T16:31:43;10.80;53.70
3638;DHT22;1835;50.068;8.154;2023-03-02T16:34:12;10.90;53.50
3638;DHT22;1835;50.068;8.154;2023-03-02T16:36:41;10.90;53.40
3638;DHT22;1835;50.068;8.154;2023-03-02T16:39:10;10.90;53.10
3638;DHT22;1835;50.068;8.154;2023-03-02T16:41:39;10.80;52.90
3638;DHT22;1835;50.068;8.154;2023-03-02T16:44:13;11.00;53.00
3638;DHT22;1835;50.068;8.154;2023-03-02T16:46:41;10.50;53.20